createdAt,value
2023-04-15T00:00:35.054Z,7.50
2023-04-15T00:01:37.383Z,8.48
2023-04-15T00:02:39.677Z,7.43
2023-04-15T00:03:42.269Z,8.52
2023-04-15T00:04:48.045Z,7.50
2023-04-15T00:05:50.163Z,7.00
2023-04-15T00:06:55.720Z,7.40
2023-04-15T00:07:59.056Z,6.78
2023-04-15T00:09:01.355Z,10.05
2023-04-15T00:10:04.511Z,7.45
2023-04-15T00:11:06.831Z,6.68
2023-04-15T00:12:09.774Z,6.10
2023-04-15T00:13:11.881Z,6.82
2023-04-15T00:14:14.346Z,7.22
2023-04-15T00:15:16.533Z,10.55
2023-04-15T00:16:18.512Z,7.40
2023-04-15T00:17:21.082Z,8.63
2023-04-15T00:18:23.865Z,8.48
2023-04-15T00:19:25.954Z,10.60
2023-04-15T00:20:27.940Z,8.98
2023-04-15T00:21:29.962Z,10.02
2023-04-15T00:22:32.511Z,10.10
2023-04-15T00:23:34.622Z,8.60
2023-04-15T00:24:37.024Z,9.55
2023-04-15T00:25:39.205Z,7.38
2023-04-15T00:26:41.354Z,8.40
2023-04-15T00:27:43.857Z,11.10
2023-04-15T00:28:46.072Z,9.32
2023-04-15T00:29:49.208Z,9.55
2023-04-15T00:30:51.311Z,8.52
2023-04-15T00:31:53.455Z,8.98
2023-04-15T00:32:55.562Z,8.57
2023-04-15T00:36:19.606Z,7.32
2023-04-15T00:37:21.648Z,8.02
2023-04-15T00:38:23.700Z,6.95
2023-04-15T00:39:25.635Z,6.53
2023-04-15T00:40:27.936Z,9.98
2023-04-15T00:41:29.979Z,8.77
2023-04-15T00:42:32.208Z,9.15
2023-04-15T00:43:34.199Z,10.48
2023-04-15T00:44:36.181Z,13.75
2023-04-15T00:45:38.430Z,14.13
2023-04-15T00:46:41.619Z,15.85
2023-04-15T00:47:44.670Z,16.40
2023-04-15T00:48:47.913Z,17.10
2023-04-15T00:49:49.909Z,17.43
2023-04-15T00:50:53.636Z,17.92
2023-04-15T00:51:55.748Z,19.35
2023-04-15T00:52:59.368Z,16.55
2023-04-15T00:54:02.128Z,14.75
2023-04-15T00:55:04.842Z,13.70
2023-04-15T00:56:07.603Z,13.63
2023-04-15T00:57:09.747Z,15.18
2023-04-15T00:58:12.098Z,11.80
2023-04-15T00:59:14.690Z,10.55
2023-04-15T01:00:16.893Z,12.63
2023-04-15T01:01:22.293Z,12.65
2023-04-15T01:02:24.621Z,13.23
2023-04-15T01:03:26.988Z,14.27
2023-04-15T01:04:36.509Z,11.93
2023-04-15T01:05:39.397Z,12.98
2023-04-15T01:06:41.786Z,13.00
2023-04-15T01:07:43.894Z,15.10
2023-04-15T01:08:46.058Z,11.05
2023-04-15T01:09:48.534Z,10.63
2023-04-15T01:10:50.854Z,7.90
2023-04-15T01:11:53.842Z,10.23
2023-04-15T01:12:55.797Z,9.23
2023-04-15T01:13:59.233Z,9.90
2023-04-15T01:15:02.682Z,8.75
2023-04-15T01:16:05.066Z,9.50
2023-04-15T01:17:07.557Z,9.23
2023-04-15T01:18:09.746Z,8.32
2023-04-15T01:19:16.811Z,8.02
2023-04-15T01:20:19.050Z,8.82
2023-04-15T01:22:26.722Z,10.10
2023-04-15T01:23:29.487Z,7.03
2023-04-15T01:24:33.335Z,8.60
2023-04-15T01:25:35.664Z,15.60
2023-04-15T01:26:42.367Z,6.93
2023-04-15T01:27:45.468Z,11.32
2023-04-15T01:28:47.612Z,8.85
2023-04-15T01:29:49.626Z,11.63
2023-04-15T01:31:05.853Z,11.85
2023-04-15T01:32:07.926Z,12.98
2023-04-15T01:33:10.072Z,10.83
2023-04-15T01:34:13.646Z,9.95
2023-04-15T01:35:15.772Z,12.50
2023-04-15T01:36:18.019Z,13.88
2023-04-15T01:37:20.513Z,13.68
2023-04-15T01:38:22.577Z,13.35
2023-04-15T01:39:24.626Z,12.60
2023-04-15T01:40:26.651Z,13.50
2023-04-15T01:41:29.158Z,14.05
2023-04-15T01:42:33.811Z,13.63
2023-04-15T01:43:37.363Z,14.87
2023-04-15T01:44:39.422Z,16.70
2023-04-15T01:45:41.934Z,12.00
2023-04-15T01:46:43.982Z,18.02
2023-04-15T01:47:45.984Z,14.43
2023-04-15T01:48:48.080Z,14.57
2023-04-15T01:49:50.101Z,12.27
2023-04-15T01:50:54.806Z,15.77
2023-04-15T01:51:56.804Z,15.73
2023-04-15T01:52:58.819Z,16.75
2023-04-15T01:54:01.008Z,14.10
2023-04-15T01:55:03.103Z,15.02
2023-04-15T01:56:05.591Z,17.27
2023-04-15T01:57:07.583Z,13.85
2023-04-15T01:58:10.044Z,16.27
2023-04-15T01:59:12.062Z,15.20
2023-04-15T02:00:14.226Z,16.42
2023-04-15T02:01:19.793Z,13.50
2023-04-15T02:02:22.153Z,14.68
2023-04-15T02:03:26.008Z,13.75
2023-04-15T02:04:28.174Z,15.30
2023-04-15T02:05:30.511Z,16.05
2023-04-15T02:06:32.558Z,13.73
2023-04-15T02:07:34.762Z,13.80
2023-04-15T02:08:37.635Z,14.23
2023-04-15T02:09:43.626Z,15.15
2023-04-15T02:10:45.596Z,15.02
2023-04-15T02:11:47.659Z,16.60
2023-04-15T02:12:49.749Z,17.95
2023-04-15T02:13:52.345Z,16.02
2023-04-15T02:14:54.345Z,18.03
2023-04-15T02:15:57.876Z,15.10
2023-04-15T02:17:07.206Z,14.80
2023-04-15T02:18:09.212Z,16.80
2023-04-15T02:19:11.472Z,14.98
2023-04-15T02:20:13.519Z,15.25
2023-04-15T02:21:15.631Z,15.18
2023-04-15T02:22:18.962Z,12.43
2023-04-15T02:23:21.774Z,13.35
2023-04-15T02:24:23.902Z,10.82
2023-04-15T02:25:25.923Z,13.57
2023-04-15T02:26:28.216Z,12.93
2023-04-15T02:27:30.680Z,12.23
2023-04-15T02:28:32.672Z,12.77
2023-04-15T02:29:34.686Z,14.55
2023-04-15T02:30:36.737Z,12.48
2023-04-15T02:31:40.602Z,12.80
2023-04-15T02:32:45.158Z,12.70
2023-04-15T02:33:47.669Z,14.13
2023-04-15T02:34:49.797Z,10.38
2023-04-15T02:35:53.344Z,10.53
2023-04-15T02:36:57.415Z,10.93
2023-04-15T02:38:01.025Z,11.10
2023-04-15T02:39:04.457Z,10.23
2023-04-15T02:40:13.574Z,10.48
2023-04-15T02:41:15.849Z,9.80
2023-04-15T02:42:21.704Z,9.27
2023-04-15T02:43:24.859Z,9.90
2023-04-15T02:44:27.977Z,10.45
2023-04-15T02:45:34.267Z,10.40
2023-04-15T02:46:38.363Z,9.13
2023-04-15T02:47:41.694Z,10.32
2023-04-15T02:48:43.877Z,9.05
2023-04-15T02:49:46.154Z,8.85
2023-04-15T02:50:48.341Z,10.38
2023-04-15T02:51:52.094Z,9.82
2023-04-15T02:52:55.439Z,10.05
2023-04-15T02:53:58.337Z,10.25
2023-04-15T02:55:04.555Z,10.35
2023-04-15T02:56:06.766Z,10.93
2023-04-15T02:57:08.944Z,8.77
2023-04-15T02:58:11.144Z,11.30
2023-04-15T02:59:13.586Z,8.35
2023-04-15T03:00:16.399Z,8.93
2023-04-15T03:01:21.198Z,10.75
2023-04-15T03:02:23.365Z,10.32
2023-04-15T03:03:25.626Z,9.50
2023-04-15T03:04:30.160Z,8.88
2023-04-15T03:05:32.472Z,8.98
2023-04-15T03:06:36.018Z,8.30
2023-04-15T03:07:38.047Z,11.10
2023-04-15T03:08:40.072Z,9.60
2023-04-15T03:09:42.416Z,8.65
2023-04-15T03:10:44.660Z,9.88
2023-04-15T03:11:46.704Z,8.43
2023-04-15T03:12:49.122Z,9.98
2023-04-15T03:13:56.246Z,8.63
2023-04-15T03:15:04.590Z,8.10
2023-04-15T03:16:13.628Z,8.18
2023-04-15T03:17:17.329Z,10.45
2023-04-15T03:18:20.401Z,9.87
2023-04-15T03:19:22.470Z,7.80
2023-04-15T03:20:24.812Z,9.07
2023-04-15T03:21:27.701Z,9.27
2023-04-15T03:22:29.908Z,9.20
2023-04-15T03:23:32.360Z,10.30
2023-04-15T03:24:34.623Z,10.82
2023-04-15T03:25:37.541Z,8.65
2023-04-15T03:26:41.649Z,11.13
2023-04-15T03:27:47.540Z,11.82
2023-04-15T03:28:49.576Z,11.50
2023-04-15T03:29:53.370Z,16.25
2023-04-15T03:30:57.351Z,15.38
2023-04-15T03:31:59.407Z,14.23
2023-04-15T03:33:01.843Z,14.40
2023-04-15T03:34:04.067Z,14.77
2023-04-15T03:35:06.587Z,15.82
2023-04-15T03:36:08.624Z,14.13
2023-04-15T03:37:10.699Z,12.75
2023-04-15T03:38:12.891Z,11.32
2023-04-15T03:39:14.869Z,13.57
2023-04-15T03:40:17.094Z,14.68
2023-04-15T03:41:19.101Z,14.80
2023-04-15T03:42:21.302Z,14.82
2023-04-15T03:43:23.302Z,12.82
2023-04-15T03:44:28.392Z,14.90
2023-04-15T03:45:30.528Z,12.10
2023-04-15T03:46:32.643Z,15.63
2023-04-15T03:47:34.665Z,11.07
2023-04-15T03:48:36.659Z,11.65
2023-04-15T03:49:38.697Z,10.53
2023-04-15T03:50:40.778Z,14.23
2023-04-15T03:51:42.825Z,11.65
2023-04-15T03:52:45.778Z,9.88
2023-04-15T03:53:47.758Z,11.07
2023-04-15T03:54:49.885Z,10.25
2023-04-15T03:55:52.396Z,13.35
2023-04-15T03:56:54.382Z,10.32
2023-04-15T03:57:56.428Z,10.48
2023-04-15T03:58:58.608Z,9.70
2023-04-15T04:00:00.956Z,11.60
2023-04-15T04:01:03.229Z,9.85
2023-04-15T04:02:05.398Z,11.32
2023-04-15T04:03:08.502Z,14.52
2023-04-15T04:04:11.714Z,10.65
2023-04-15T04:05:13.721Z,9.38
2023-04-15T04:06:16.973Z,9.88
2023-04-15T04:07:19.082Z,9.45
2023-04-15T04:08:21.855Z,11.52
2023-04-15T04:09:23.892Z,12.88
2023-04-15T04:10:27.124Z,14.83
2023-04-15T04:11:29.153Z,12.85
2023-04-15T04:12:31.288Z,11.00
2023-04-15T04:13:33.261Z,10.35
2023-04-15T04:14:35.314Z,10.30
2023-04-15T04:15:37.482Z,10.05
2023-04-15T04:16:39.515Z,10.75
2023-04-15T04:17:41.654Z,10.02
2023-04-15T04:18:43.737Z,13.02
2023-04-15T04:19:45.925Z,11.80
2023-04-15T04:20:47.939Z,9.30
2023-04-15T04:21:49.910Z,11.80
2023-04-15T04:22:51.998Z,12.27
2023-04-15T04:23:54.071Z,13.02
2023-04-15T04:24:56.767Z,13.32
2023-04-15T04:25:58.798Z,12.20
2023-04-15T04:27:01.082Z,12.40
2023-04-15T04:28:03.335Z,11.50
2023-04-15T04:29:05.393Z,10.90
2023-04-15T04:30:08.233Z,9.65
2023-04-15T04:31:10.361Z,11.07
2023-04-15T04:32:12.432Z,12.63
2023-04-15T04:33:14.485Z,10.10
2023-04-15T04:34:16.886Z,11.43
2023-04-15T04:35:18.944Z,9.75
2023-04-15T04:36:21.099Z,11.30
2023-04-15T04:37:23.706Z,11.88
2023-04-15T04:38:25.928Z,10.80
2023-04-15T04:39:27.889Z,10.27
2023-04-15T04:40:30.344Z,10.85
2023-04-15T04:41:32.542Z,10.23
2023-04-15T04:42:34.592Z,11.88
2023-04-15T04:43:36.761Z,10.57
2023-04-15T04:44:39.179Z,9.98
2023-04-15T04:45:41.255Z,11.85
2023-04-15T04:46:43.395Z,9.50
2023-04-15T04:47:45.438Z,11.13
2023-04-15T04:48:47.706Z,9.90
2023-04-15T04:49:49.691Z,11.05
2023-04-15T04:50:52.054Z,9.38
2023-04-15T04:51:54.203Z,10.30
2023-04-15T04:52:56.513Z,10.55
2023-04-15T04:53:58.813Z,9.27
2023-04-15T04:55:00.861Z,10.93
2023-04-15T04:56:02.827Z,11.68
2023-04-15T04:57:04.866Z,10.65
2023-04-15T04:58:07.015Z,9.90
2023-04-15T04:59:09.443Z,12.23
2023-04-15T05:00:12.655Z,9.25
2023-04-15T05:01:14.727Z,12.18
2023-04-15T05:02:17.128Z,10.10
2023-04-15T05:03:19.594Z,10.27
2023-04-15T05:04:21.704Z,13.95
2023-04-15T05:05:23.748Z,13.15
2023-04-15T05:06:26.419Z,10.38
2023-04-15T05:07:28.480Z,13.18
2023-04-15T05:08:30.498Z,11.65
2023-04-15T05:09:33.140Z,14.02
2023-04-15T05:10:35.385Z,12.88
2023-04-15T05:11:37.443Z,12.38
2023-04-15T05:12:39.568Z,12.07
2023-04-15T05:13:41.614Z,11.48
2023-04-15T05:14:43.884Z,12.75
2023-04-15T05:15:46.079Z,12.10
2023-04-15T05:16:48.079Z,10.48
2023-04-15T05:17:50.152Z,10.40
2023-04-15T05:18:52.208Z,10.52
2023-04-15T05:19:54.245Z,11.00
2023-04-15T05:20:56.205Z,11.73
2023-04-15T05:21:58.266Z,9.90
2023-04-15T05:23:00.336Z,11.27
2023-04-15T05:24:02.362Z,9.80
2023-04-15T05:25:04.805Z,9.25
2023-04-15T05:26:06.927Z,10.77
2023-04-15T05:27:10.752Z,10.93
2023-04-15T05:28:12.846Z,10.57
2023-04-15T05:29:14.811Z,10.40
2023-04-15T05:30:16.900Z,8.82
2023-04-15T05:31:19.065Z,10.77
2023-04-15T05:32:21.436Z,12.50
2023-04-15T05:33:23.660Z,11.70
2023-04-15T05:34:25.736Z,12.93
2023-04-15T05:35:27.840Z,11.05
2023-04-15T05:36:29.848Z,10.88
2023-04-15T05:37:31.854Z,12.45
2023-04-15T05:38:33.877Z,10.30
2023-04-15T05:39:36.374Z,14.00
2023-04-15T05:40:38.566Z,13.23
2023-04-15T05:41:41.905Z,11.25
2023-04-15T05:42:43.941Z,12.18
2023-04-15T05:43:45.931Z,13.70
2023-04-15T05:44:48.008Z,12.75
2023-04-15T05:45:50.093Z,12.27
2023-04-15T05:46:52.292Z,14.25
2023-04-15T05:47:54.675Z,13.85
2023-04-15T05:48:56.906Z,13.57
2023-04-15T05:49:59.241Z,14.30
2023-04-15T05:51:01.705Z,11.50
2023-04-15T05:52:03.792Z,12.82
2023-04-15T05:53:05.818Z,13.82
2023-04-15T05:54:07.765Z,16.10
2023-04-15T05:55:10.069Z,13.38
2023-04-15T05:56:12.215Z,12.27
2023-04-15T05:57:14.206Z,13.25
2023-04-15T05:58:16.288Z,12.23
2023-04-15T05:59:18.245Z,11.25
2023-04-15T06:00:20.397Z,11.07
2023-04-15T06:01:22.520Z,10.48
2023-04-15T06:02:24.714Z,10.25
2023-04-15T06:03:26.897Z,13.07
2023-04-15T06:04:29.213Z,12.47
2023-04-15T06:05:31.320Z,13.57
2023-04-15T06:06:33.502Z,12.95
2023-04-15T06:07:39.050Z,10.65
2023-04-15T06:08:41.397Z,14.88
2023-04-15T06:09:45.720Z,12.75
2023-04-15T06:10:47.851Z,13.50
2023-04-15T06:11:50.027Z,13.15
2023-04-15T06:12:53.454Z,13.80
2023-04-15T06:13:55.568Z,14.30
2023-04-15T06:14:59.936Z,10.37
2023-04-15T06:16:02.296Z,14.25
2023-04-15T06:17:04.366Z,14.77
2023-04-15T06:18:06.412Z,13.13
2023-04-15T06:19:08.521Z,16.23
2023-04-15T06:20:11.296Z,14.20
2023-04-15T06:21:13.376Z,14.02
2023-04-15T06:22:15.928Z,15.15
2023-04-15T06:23:18.036Z,14.55
2023-04-15T06:24:20.110Z,13.13
2023-04-15T06:25:22.176Z,16.93
2023-04-15T06:26:24.135Z,14.93
2023-04-15T06:27:26.065Z,19.67
2023-04-15T06:28:28.170Z,18.05
2023-04-15T06:29:30.761Z,21.25
2023-04-15T06:30:32.857Z,15.63
2023-04-15T06:31:34.921Z,26.50
2023-04-15T06:32:37.087Z,19.55
2023-04-15T06:33:39.813Z,22.67
2023-04-15T06:34:41.894Z,19.73
2023-04-15T06:35:44.005Z,21.70
2023-04-15T06:36:46.099Z,18.67
2023-04-15T06:37:48.107Z,20.40
2023-04-15T06:38:50.169Z,29.30
2023-04-15T06:39:52.321Z,16.20
2023-04-15T06:40:54.436Z,18.05
2023-04-15T06:41:56.819Z,14.85
2023-04-15T06:42:59.114Z,15.90
2023-04-15T06:44:01.062Z,16.75
2023-04-15T06:45:03.146Z,16.40
2023-04-15T06:46:05.651Z,13.87
2023-04-15T06:47:07.672Z,16.57
2023-04-15T06:48:09.701Z,16.67
2023-04-15T06:49:11.616Z,14.75
2023-04-15T06:50:13.618Z,17.60
2023-04-15T06:51:15.810Z,16.50
2023-04-15T06:52:17.893Z,16.63
2023-04-15T06:53:19.873Z,15.50
2023-04-15T06:54:22.078Z,15.73
2023-04-15T06:55:24.146Z,17.23
2023-04-15T06:56:26.134Z,19.37
2023-04-15T06:57:28.788Z,16.57
2023-04-15T06:58:31.143Z,18.15
2023-04-15T06:59:33.186Z,17.98
2023-04-15T07:00:35.690Z,16.38
2023-04-15T07:01:37.789Z,19.60
2023-04-15T07:02:39.902Z,17.80
2023-04-15T07:03:42.133Z,18.23
2023-04-15T07:04:44.137Z,17.63
2023-04-15T07:05:46.466Z,17.95
2023-04-15T07:06:48.730Z,21.17
2023-04-15T07:07:51.342Z,20.20
2023-04-15T07:08:53.487Z,18.45
2023-04-15T07:09:55.472Z,15.82
2023-04-15T07:10:58.024Z,18.15
2023-04-15T07:12:00.145Z,21.60
2023-04-15T07:13:02.781Z,21.17
2023-04-15T07:14:04.889Z,20.85
2023-04-15T07:15:07.434Z,20.92
2023-04-15T07:16:29.388Z,20.95
2023-04-15T07:17:32.369Z,21.07
2023-04-15T07:18:34.540Z,21.93
2023-04-15T07:19:36.612Z,22.38
2023-04-15T07:20:39.363Z,25.30
2023-04-15T07:21:41.994Z,22.40
2023-04-15T07:22:44.206Z,20.80
2023-04-15T07:23:46.535Z,23.92
2023-04-15T07:24:48.542Z,24.02
2023-04-15T07:25:50.695Z,22.27
2023-04-15T07:26:57.197Z,23.88
2023-04-15T07:28:00.578Z,26.07
2023-04-15T07:29:02.879Z,24.07
2023-04-15T07:30:05.699Z,24.92
2023-04-15T07:31:07.786Z,26.05
2023-04-15T07:32:11.119Z,25.38
2023-04-15T07:33:13.717Z,22.05
2023-04-15T07:34:16.668Z,19.17
2023-04-15T07:35:21.156Z,15.02
2023-04-15T07:36:23.374Z,17.67
2023-04-15T07:37:25.473Z,18.23
2023-04-15T07:38:27.543Z,19.17
2023-04-15T07:39:29.959Z,20.93
2023-04-15T07:40:32.347Z,21.50
2023-04-15T07:41:34.811Z,22.48
2023-04-15T07:42:37.732Z,25.42
2023-04-15T07:43:40.991Z,26.10
2023-04-15T07:44:43.057Z,24.90
2023-04-15T07:45:45.133Z,28.52
2023-04-15T07:46:47.894Z,26.20
2023-04-15T07:47:51.367Z,25.63
2023-04-15T07:48:54.110Z,29.03
2023-04-15T07:49:56.151Z,29.10
2023-04-15T07:50:58.125Z,29.85
2023-04-15T07:52:00.653Z,32.17
2023-04-15T07:53:02.617Z,33.13
2023-04-15T07:54:04.809Z,29.08
2023-04-15T07:55:11.570Z,25.73
2023-04-15T07:56:13.723Z,28.88
2023-04-15T07:57:17.040Z,24.90
2023-04-15T07:58:18.999Z,28.60
2023-04-15T07:59:21.602Z,30.93
2023-04-15T08:00:23.826Z,31.60
2023-04-15T08:01:25.964Z,31.60
2023-04-15T08:02:28.266Z,29.42
2023-04-15T08:03:30.565Z,31.92
2023-04-15T08:04:34.221Z,31.48
2023-04-15T08:05:36.399Z,31.35
2023-04-15T08:06:40.010Z,31.80
2023-04-15T08:07:42.251Z,27.50
2023-04-15T08:08:44.339Z,28.02
2023-04-15T08:09:47.009Z,26.40
2023-04-15T08:10:51.396Z,31.20
2023-04-15T08:11:54.706Z,29.38
2023-04-15T08:12:57.672Z,29.98
2023-04-15T08:14:00.385Z,29.70
2023-04-15T08:15:03.098Z,29.33
2023-04-15T08:16:20.898Z,33.60
2023-04-15T08:17:23.253Z,36.17
2023-04-15T08:18:25.336Z,35.80
2023-04-15T08:19:27.409Z,36.63
2023-04-15T08:20:29.935Z,33.47
2023-04-15T08:21:32.056Z,40.27
2023-04-15T08:22:34.590Z,36.65
2023-04-15T08:23:36.891Z,31.65
2023-04-15T08:24:39.154Z,37.53
2023-04-15T08:25:42.166Z,37.25
2023-04-15T08:26:44.271Z,38.67
2023-04-15T08:27:46.735Z,37.38
2023-04-15T08:28:49.468Z,37.22
2023-04-15T08:29:51.650Z,34.38
2023-04-15T08:30:53.779Z,37.90
2023-04-15T08:31:55.876Z,40.13
2023-04-15T08:32:58.033Z,38.05
2023-04-15T08:34:00.492Z,42.03
2023-04-15T08:35:02.523Z,39.50
2023-04-15T08:36:04.968Z,40.38
2023-04-15T08:37:07.084Z,34.90
2023-04-15T08:38:09.181Z,28.08
2023-04-15T08:39:11.438Z,34.33
2023-04-15T08:40:13.705Z,29.23
2023-04-15T08:41:24.179Z,35.38
2023-04-15T08:42:32.802Z,36.83
2023-04-15T08:43:40.272Z,31.13
2023-04-15T08:44:44.618Z,22.05
2023-04-15T08:45:48.749Z,14.82
2023-04-15T08:46:52.613Z,18.98
2023-04-15T08:47:56.846Z,18.95
2023-04-15T08:48:59.785Z,19.63
2023-04-15T08:50:04.432Z,32.83
2023-04-15T08:51:07.636Z,27.25
2023-04-15T08:52:10.112Z,31.40
2023-04-15T08:53:12.793Z,28.13
2023-04-15T08:54:14.914Z,27.33
2023-04-15T08:55:17.228Z,18.08
2023-04-15T08:56:22.888Z,23.88
2023-04-15T08:57:28.912Z,28.77
2023-04-15T08:58:31.273Z,27.05
2023-04-15T08:59:33.348Z,27.67
2023-04-15T09:00:36.018Z,28.48
2023-04-15T09:01:38.629Z,27.58
2023-04-15T09:02:41.429Z,25.23
2023-04-15T09:03:44.551Z,19.53
2023-04-15T09:04:46.752Z,17.80
2023-04-15T09:05:50.840Z,14.30
2023-04-15T09:06:54.244Z,16.13
2023-04-15T09:07:56.380Z,14.73
2023-04-15T09:08:58.465Z,16.88
2023-04-15T09:10:00.440Z,18.27
2023-04-15T09:11:05.493Z,18.13
2023-04-15T09:12:08.276Z,19.83
2023-04-15T09:13:10.291Z,18.60
2023-04-15T09:14:12.366Z,20.37
2023-04-15T09:15:16.455Z,25.40
2023-04-15T09:16:18.996Z,16.63
2023-04-15T09:17:24.849Z,16.88
2023-04-15T09:18:30.960Z,14.25
2023-04-15T09:19:34.683Z,16.90
2023-04-15T09:20:44.692Z,17.77
2023-04-15T09:21:48.119Z,13.98
2023-04-15T09:22:51.206Z,16.95
2023-04-15T09:23:58.211Z,14.90
2023-04-15T09:25:00.622Z,14.90
2023-04-15T09:26:03.853Z,16.80
2023-04-15T09:27:06.509Z,18.13
2023-04-15T09:28:08.975Z,17.20
2023-04-15T09:29:14.956Z,14.40
2023-04-15T09:30:17.484Z,15.75
2023-04-15T09:31:29.645Z,15.45
2023-04-15T09:32:31.885Z,14.65
2023-04-15T09:33:33.991Z,13.82
2023-04-15T09:34:37.419Z,9.73
2023-04-15T09:35:39.684Z,10.00
2023-04-15T09:36:49.146Z,10.88
2023-04-15T09:37:53.187Z,8.95
2023-04-15T09:38:57.363Z,10.45
2023-04-15T09:39:59.352Z,10.88
2023-04-15T09:41:01.490Z,13.15
2023-04-15T09:42:08.170Z,12.15
2023-04-15T09:43:13.627Z,12.40
2023-04-15T09:44:26.523Z,11.45
2023-04-15T09:45:29.798Z,10.40
2023-04-15T09:46:42.832Z,15.80
2023-04-15T09:47:44.962Z,18.08
2023-04-15T09:48:46.984Z,11.25
2023-04-15T09:49:59.339Z,11.32
2023-04-15T09:51:02.372Z,12.93
2023-04-15T09:52:06.136Z,16.48
2023-04-15T09:53:15.616Z,15.15
2023-04-15T09:54:22.479Z,17.27
2023-04-15T09:55:24.540Z,17.70
2023-04-15T09:56:35.149Z,15.80
2023-04-15T09:57:38.192Z,13.20
2023-04-15T09:58:41.717Z,14.50
2023-04-15T10:02:13.799Z,12.48
2023-04-15T10:03:23.650Z,12.75
2023-04-15T10:04:28.562Z,12.60
2023-04-15T10:05:31.817Z,16.10
2023-04-15T10:06:35.021Z,20.45
2023-04-15T10:07:38.390Z,21.60
2023-04-15T10:08:43.504Z,23.73
2023-04-15T10:09:47.202Z,16.43
2023-04-15T10:10:52.444Z,14.73
2023-04-15T10:11:55.012Z,11.18
2023-04-15T10:12:58.937Z,9.93
2023-04-15T10:14:01.985Z,7.32
2023-04-15T10:15:15.936Z,7.78
2023-04-15T10:16:21.488Z,8.02
2023-04-15T10:17:40.910Z,9.73
2023-04-15T10:19:04.943Z,8.02
2023-04-15T10:20:32.128Z,8.00
2023-04-15T10:21:35.939Z,13.67
2023-04-15T10:22:38.734Z,9.00
2023-04-15T10:23:41.906Z,8.90
2023-04-15T10:24:45.646Z,8.82
2023-04-15T10:25:49.554Z,9.15
2023-04-15T10:26:55.581Z,7.32
2023-04-15T10:27:58.502Z,8.50
2023-04-15T10:29:01.449Z,9.48
2023-04-15T10:30:04.225Z,8.38
2023-04-15T10:31:07.840Z,8.73
2023-04-15T10:32:11.749Z,6.87
2023-04-15T10:33:17.315Z,8.57
2023-04-15T10:34:19.974Z,7.00
2023-04-15T10:35:23.186Z,7.93
2023-04-15T10:36:25.852Z,6.68
2023-04-15T10:37:38.821Z,5.60
2023-04-15T10:38:45.823Z,6.75
2023-04-15T10:39:49.659Z,10.05
2023-04-15T10:40:53.172Z,8.98
2023-04-15T10:42:24.461Z,9.93
2023-04-15T10:43:27.381Z,10.00
2023-04-15T10:44:29.499Z,10.50
2023-04-15T10:45:39.441Z,8.90
2023-04-15T10:46:45.926Z,10.20
2023-04-15T10:47:54.548Z,10.38
2023-04-15T10:48:57.750Z,11.63
2023-04-15T10:50:02.976Z,10.25
2023-04-15T10:51:05.826Z,9.10
2023-04-15T10:52:08.805Z,9.73
2023-04-15T10:53:11.725Z,8.48
2023-04-15T10:54:15.023Z,9.43
2023-04-15T10:55:26.872Z,10.32
2023-04-15T10:56:30.999Z,13.57
2023-04-15T10:57:41.567Z,13.27
2023-04-15T10:58:44.240Z,12.98
2023-04-15T11:00:11.525Z,11.48
2023-04-15T11:01:14.006Z,12.88
2023-04-15T11:02:16.397Z,14.18
2023-04-15T11:03:39.429Z,16.42
2023-04-15T11:04:56.266Z,15.57
2023-04-15T11:05:58.919Z,23.43
2023-04-15T11:07:35.921Z,21.63
2023-04-15T11:09:02.928Z,22.55
2023-04-15T11:10:33.983Z,18.95
2023-04-15T11:12:12.068Z,22.15
2023-04-15T11:13:22.009Z,20.10
2023-04-15T11:14:25.685Z,20.42
2023-04-15T11:15:40.501Z,18.38
2023-04-15T11:16:45.934Z,18.77
2023-04-15T11:17:48.408Z,20.00
2023-04-15T11:18:57.077Z,13.60
2023-04-15T11:19:59.884Z,11.90
2023-04-15T11:21:06.633Z,10.85
2023-04-15T11:22:12.398Z,12.68
2023-04-15T11:23:39.942Z,54.03
2023-04-15T11:24:50.704Z,40.55
2023-04-15T11:25:55.921Z,23.95
2023-04-15T11:26:59.094Z,24.20
2023-04-15T11:28:02.715Z,20.98
2023-04-15T11:29:06.683Z,18.00
2023-04-15T11:30:22.749Z,19.57
2023-04-15T11:31:28.779Z,16.73
2023-04-15T11:32:30.877Z,18.00
2023-04-15T11:33:33.215Z,17.02
2023-04-15T11:34:36.313Z,19.95
2023-04-15T11:35:41.013Z,20.10
2023-04-15T11:36:44.257Z,17.42
2023-04-15T11:37:55.971Z,18.58
2023-04-15T11:39:00.100Z,13.43
2023-04-15T11:40:03.796Z,12.48
2023-04-15T11:41:10.917Z,12.77
2023-04-15T11:42:19.044Z,10.45
2023-04-15T11:43:23.083Z,10.18
2023-04-15T11:44:25.416Z,8.25
2023-04-15T11:45:27.716Z,10.45
2023-04-15T11:46:34.984Z,9.23
2023-04-15T11:47:38.258Z,10.57
2023-04-15T11:48:44.977Z,11.98
2023-04-15T11:49:47.293Z,9.32
2023-04-15T11:50:55.868Z,7.40
2023-04-15T11:51:58.024Z,5.63
2023-04-15T11:53:03.293Z,5.85
2023-04-15T11:54:05.782Z,6.00
2023-04-15T11:55:09.321Z,6.40
2023-04-15T11:56:17.702Z,8.63
2023-04-15T11:57:19.799Z,6.47
2023-04-15T11:58:24.274Z,6.63
2023-04-15T11:59:35.653Z,6.32
2023-04-15T12:00:54.715Z,8.45
2023-04-15T12:01:57.356Z,6.88
2023-04-15T12:03:40.545Z,6.53
2023-04-15T12:04:43.252Z,9.88
2023-04-15T12:06:06.521Z,7.05
2023-04-15T12:07:09.157Z,6.72
2023-04-15T12:08:11.367Z,8.13
2023-04-15T12:09:15.412Z,6.82
2023-04-15T12:10:18.275Z,3.10
2023-04-15T12:11:31.014Z,4.10
2023-04-15T12:12:33.304Z,4.00
2023-04-15T12:13:35.522Z,4.03
2023-04-15T12:14:42.519Z,5.10
2023-04-15T12:15:44.864Z,3.15
2023-04-15T12:16:51.735Z,3.47
2023-04-15T12:17:55.798Z,3.88
2023-04-15T12:18:59.332Z,5.47
2023-04-15T12:20:01.553Z,3.05
2023-04-15T12:21:11.196Z,3.15
2023-04-15T12:22:15.875Z,3.40
2023-04-15T12:23:20.883Z,3.75
2023-04-15T12:24:23.639Z,4.20
2023-04-15T12:25:35.533Z,3.77
2023-04-15T12:26:49.353Z,5.30
2023-04-15T12:27:53.543Z,5.68
2023-04-15T12:28:57.421Z,5.57
2023-04-15T12:30:06.538Z,6.50
2023-04-15T12:31:10.647Z,7.30
2023-04-15T12:32:24.010Z,7.72
2023-04-15T12:33:34.135Z,10.95
2023-04-15T12:34:36.440Z,7.53
2023-04-15T12:35:39.177Z,8.35
2023-04-15T12:36:41.437Z,8.43
2023-04-15T12:37:43.558Z,6.82
2023-04-15T12:38:45.774Z,8.18
2023-04-15T12:39:50.868Z,6.82
2023-04-15T12:42:58.876Z,9.98
2023-04-15T12:44:01.976Z,12.18
2023-04-15T12:45:12.981Z,18.45
2023-04-15T12:46:15.884Z,19.65
2023-04-15T12:47:18.379Z,17.02
2023-04-15T12:48:23.105Z,17.70
2023-04-15T12:49:26.127Z,16.27
2023-04-15T12:50:31.264Z,21.40
2023-04-15T12:51:33.640Z,20.00
2023-04-15T12:52:36.014Z,21.70
2023-04-15T12:53:40.602Z,18.35
2023-04-15T12:54:44.114Z,17.98
2023-04-15T12:55:48.716Z,17.88
2023-04-15T12:56:51.688Z,18.27
2023-04-15T12:57:54.120Z,18.17
2023-04-15T12:59:04.836Z,15.97
2023-04-15T13:00:08.501Z,13.75
2023-04-15T13:01:12.165Z,16.42
2023-04-15T13:02:14.607Z,17.10
2023-04-15T13:03:19.659Z,15.85
2023-04-15T13:04:22.390Z,13.60
2023-04-15T13:05:24.883Z,15.13
2023-04-15T13:06:27.178Z,11.90
2023-04-15T13:07:29.444Z,11.10
2023-04-15T13:08:32.174Z,12.93
2023-04-15T13:09:34.385Z,14.83
2023-04-15T13:10:36.886Z,13.05
2023-04-15T13:11:39.383Z,10.63
2023-04-15T13:12:46.969Z,10.80
2023-04-15T13:13:49.410Z,10.95
2023-04-15T13:14:51.703Z,10.77
2023-04-15T13:15:55.431Z,10.23
2023-04-15T13:16:58.140Z,12.40
2023-04-15T13:18:01.201Z,9.73
2023-04-15T13:19:04.469Z,10.60
2023-04-15T13:20:07.107Z,9.13
2023-04-15T13:21:11.022Z,9.88
2023-04-15T13:22:15.040Z,9.25
2023-04-15T13:23:17.756Z,8.15
2023-04-15T13:24:23.456Z,14.00
2023-04-15T13:25:26.295Z,10.70
2023-04-15T13:26:28.780Z,7.18
2023-04-15T13:27:31.932Z,9.32
2023-04-15T13:28:34.610Z,14.95
2023-04-15T13:29:38.220Z,18.63
2023-04-15T13:30:40.842Z,18.43
2023-04-15T13:31:43.276Z,21.77
2023-04-15T13:32:45.795Z,31.70
2023-04-15T13:33:47.979Z,26.45
2023-04-15T13:34:50.310Z,30.55
2023-04-15T13:35:52.529Z,39.85
2023-04-15T13:36:54.914Z,28.80
2023-04-15T13:37:57.274Z,19.52
2023-04-15T13:39:00.081Z,19.48
2023-04-15T13:40:03.236Z,21.38
2023-04-15T13:41:05.470Z,18.57
2023-04-15T13:42:07.626Z,15.82
2023-04-15T13:43:09.793Z,15.30
2023-04-15T13:44:12.867Z,15.73
2023-04-15T13:45:15.490Z,13.52
2023-04-15T13:46:17.910Z,11.60
2023-04-15T13:47:20.891Z,18.13
2023-04-15T13:48:23.081Z,15.63
2023-04-15T13:49:25.197Z,13.93
2023-04-15T13:50:29.136Z,12.77
2023-04-15T13:51:31.959Z,15.20
2023-04-15T13:52:34.201Z,16.38
2023-04-15T13:53:39.197Z,18.15
2023-04-15T13:54:41.700Z,13.88
2023-04-15T13:55:48.480Z,16.88